الصفحة الرئيسية
METAR-TAF:

METAR-TAF

مطار :

مطار دبي الدولي

إمارة دبي, الإمارات العربية المتحدة

دائرة عرض: 25-15-10N, خط طول: 055-21-52E, ارتفاع: 8 متر

مراقبة الطقس الحالي

تاريخ ووقت الإصدار 7 دقيقة قبل الساعة 04:00UTC
ريح 4 عقدة من الجنوب/الجنوب الغربي, الاتجاه يتراوح بين الجنوب/الجنوب الشرقي و الغرب/الجنوب الغربي
درجة الحرارة 17°درجة مئوية
الرطوبة 68%
ضغط 1020 hPa
الرؤية 10 كم أو أكثر
الغيوم لا تقل 1500 م ولا وجود لمزنة ركامية السحاب الأسود

METAR: OMDB 220400Z 21004KT 150V250 CAVOK 17/11 Q1020 NOSIG

زمن: 08:07 (04:07 UTC)

توقعات

تاريخ ووقت الإصدار 5ساعات و 8 دقيقة قبل الساعة 22:59UTC
التوقعات صالحة من22 الساعة 00 UTC إلى 23 الساعة 06 UTC
ريح 5 عقدة من الشرق/الشمال الشرقي
الرؤية 10 كم أو أكثر
الغيوم لا تقل 1500 م ولا وجود لمزنة ركامية السحاب الأسود
أصبح
من 22 الساعة 09 UTC إلى 22 الساعة 11 UTC
ريح 10 عقدة من الشمال/الشمال الغربي
أصبح
من 22 الساعة 16 UTC إلى 22 الساعة 18 UTC
ريح 5 عقدة من الشمال الشرقي

TAF: OMDB 212259Z 2200/2306 06005KT CAVOK BECMG 2209/2211 34010KT BECMG 2216/2218 04005KT

أرصاد الطقس والتوقعات من أكثر من 4000 مطار (تقارير الطقس للمطار METAR والتنبؤ بالطقس بالمطارTAF).

المحطات المتاحة هي النقط الصفراء والحمراء على الخريطة.

حرك المؤشر فوق النقطة لمعرفة اسم المحطة.

ثم انقر لمعرفة أرصاد وتوقعات الطقس.

لتغيير الخارطة: اضغط على الأزرار الخضراء مع رمز الصليب الأسود للتكبير. على الزر الأخضر مع شرطة للتصغير، أو على الأسهم الخضراء للخرائط المجاورة.


METAR-TAF: